Time;durP1;ratioP1;P1;durP2;ratioP2;P2;SDS_P1;SDS_P2;PMS_P1;PMS_P2;Temp;Humidity;BMP_temperature;BMP_pressure;BME280_temperature;BME280_humidity;BME280_pressure;Samples;Min_cycle;Max_cycle;Signal;HPM_P1;HPM_P2
2021/10/09 00:00:54;;;;;;;2.17;1.30;;;21.00;50.00;;;24.76;33.34;103023.69;5113244;28;20055;-9
2021/10/09 00:03:20;;;;;;;1.20;1.10;;;20.90;50.00;;;24.78;33.38;103027.16;5113302;28;20073;-9
2021/10/09 00:05:46;;;;;;;1.70;1.60;;;20.90;50.00;;;24.76;33.56;103020.16;5113260;28;20048;-9
2021/10/09 00:08:16;;;;;;;1.63;1.40;;;20.90;50.00;;;24.77;33.58;103028.13;5113276;28;20048;-9
2021/10/09 00:10:43;;;;;;;1.90;1.48;;;21.00;50.00;;;24.74;33.40;103013.97;5113392;28;20048;-9
2021/10/09 00:13:10;;;;;;;1.80;1.40;;;21.00;50.00;;;24.73;33.40;103018.47;5113152;28;20067;-9
2021/10/09 00:15:36;;;;;;;1.95;1.63;;;20.90;49.90;;;24.77;33.64;103025.44;5113140;28;20050;-9
2021/10/09 00:18:02;;;;;;;1.55;1.45;;;20.90;50.00;;;24.76;33.52;103026.38;5113192;28;20051;-9
2021/10/09 00:20:29;;;;;;;1.58;1.48;;;20.90;50.00;;;24.73;33.56;103013.13;5113078;28;20449;-9
2021/10/09 00:22:55;;;;;;;1.45;1.30;;;20.90;50.00;;;24.76;33.53;103028.19;5113325;28;20055;-9
2021/10/09 00:25:21;;;;;;;1.50;1.40;;;20.90;50.00;;;24.76;33.38;103023.69;5113202;28;20050;-9
2021/10/09 00:27:48;;;;;;;2.15;1.52;;;20.90;50.10;;;24.75;33.50;103015.72;5112847;28;20050;-9
2021/10/09 00:30:15;;;;;;;2.03;1.63;;;20.90;50.10;;;24.71;33.44;103019.50;5094896;28;20058;-9
2021/10/09 00:32:42;;;;;;;1.60;1.50;;;20.90;50.00;;;24.72;33.68;103026.56;5112912;28;20579;-9
2021/10/09 00:35:08;;;;;;;2.17;1.70;;;20.90;50.10;;;24.73;33.56;103026.50;5112844;28;20040;-9
2021/10/09 00:37:34;;;;;;;1.48;1.30;;;20.90;50.10;;;24.71;33.63;103017.66;5112815;28;20055;-9
2021/10/09 00:40:00;;;;;;;1.50;1.40;;;20.90;50.10;;;24.72;33.51;103029.22;5092632;28;20043;-10
2021/10/09 00:42:26;;;;;;;1.77;1.30;;;20.90;50.10;;;24.70;33.42;103018.59;5112698;28;20051;-9
2021/10/09 00:44:52;;;;;;;1.70;1.50;;;20.90;50.10;;;24.69;33.55;103016.88;5112730;28;20101;-10
2021/10/09 00:47:23;;;;;;;1.50;1.40;;;20.90;50.10;;;24.71;33.60;103016.81;5112732;28;20048;-9
2021/10/09 00:49:49;;;;;;;1.50;1.40;;;20.90;50.10;;;24.74;33.48;103022.00;5091943;28;20483;-9
2021/10/09 00:52:15;;;;;;;1.83;1.60;;;20.90;50.10;;;24.72;33.50;103011.38;5112598;28;20048;-9
2021/10/09 00:54:47;;;;;;;2.00;1.73;;;20.90;50.20;;;24.71;33.72;103017.66;5112582;28;20130;-9
2021/10/09 00:57:16;;;;;;;1.80;1.70;;;20.80;50.10;;;24.71;33.67;103014.13;5112778;28;20082;-9
2021/10/09 00:59:43;;;;;;;1.70;1.60;;;20.90;50.20;;;24.69;33.56;103011.53;5092646;28;20449;-9
2021/10/09 01:02:10;;;;;;;1.92;1.50;;;20.90;50.10;;;24.69;33.70;103010.63;5116093;28;20043;-9
2021/10/09 01:04:36;;;;;;;1.83;1.35;;;20.90;50.20;;;24.71;33.73;103015.00;5098287;28;20120;-9
2021/10/09 01:07:04;;;;;;;1.55;1.45;;;20.90;50.20;;;24.69;33.54;103013.31;5097717;28;20040;-10
2021/10/09 01:09:32;;;;;;;1.80;1.63;;;20.80;50.10;;;24.69;33.52;103016.88;5097791;28;20096;-9
2021/10/09 01:11:59;;;;;;;1.50;1.40;;;20.90;50.20;;;24.70;33.57;103015.06;5115936;28;20093;-9
2021/10/09 01:14:27;;;;;;;2.50;1.77;;;20.90;50.20;;;24.69;33.63;103016.88;5097622;28;20491;-9
2021/10/09 01:16:53;;;;;;;2.88;1.52;;;20.80;50.10;;;24.67;33.69;103012.50;5097398;28;20050;-11
2021/10/09 01:19:19;;;;;;;1.70;1.60;;;20.80;50.10;;;24.68;33.57;103015.13;5097331;28;20047;-9
2021/10/09 01:21:50;;;;;;;1.30;1.20;;;20.80;50.20;;;24.69;33.46;103013.31;5098071;28;20046;-9
2021/10/09 01:24:18;;;;;;;1.67;1.50;;;20.80;50.10;;;24.70;33.53;103012.38;5097459;28;20052;-9
2021/10/09 01:26:46;;;;;;;1.63;1.38;;;20.80;50.20;;;24.66;33.48;103005.41;5097764;28;20048;-9
2021/10/09 01:29:15;;;;;;;2.05;1.67;;;20.80;50.20;;;24.66;33.54;103008.09;5095316;28;20050;-9
2021/10/09 01:31:44;;;;;;;2.22;1.40;;;20.80;50.10;;;24.65;33.69;103004.56;5098099;28;20051;-9
2021/10/09 01:34:24;;;;;;;1.55;1.45;;;20.80;50.20;;;24.66;33.75;103010.78;5097321;28;20053;-9
2021/10/09 01:36:56;;;;;;;1.52;1.40;;;20.80;50.20;;;24.69;33.63;103014.22;5097282;28;20046;-10
2021/10/09 01:39:23;;;;;;;1.80;1.40;;;20.80;50.20;;;24.65;33.56;103009.06;5097142;28;20482;-9
2021/10/09 01:41:51;;;;;;;1.67;1.55;;;20.80;50.20;;;24.63;33.65;103011.78;5080536;28;20047;-9
2021/10/09 01:44:22;;;;;;;1.38;1.27;;;20.80;50.20;;;24.66;33.71;103010.78;5097799;28;20039;-9
2021/10/09 01:46:54;;;;;;;1.73;1.60;;;20.80;50.20;;;24.65;33.65;103001.03;5097343;28;20917;-9
2021/10/09 01:49:21;;;;;;;1.45;1.35;;;20.80;50.10;;;24.66;33.48;103008.97;5115431;28;20403;-9
2021/10/09 01:51:49;;;;;;;1.48;1.38;;;20.80;50.20;;;24.67;33.52;103012.50;5097036;28;20047;-9
2021/10/09 01:54:14;;;;;;;1.63;1.50;;;20.80;50.20;;;24.63;33.78;103003.75;5096891;28;20062;-9
2021/10/09 01:56:40;;;;;;;1.45;1.33;;;20.80;50.30;;;24.64;33.60;103000.16;5096661;28;20039;-10
2021/10/09 01:59:07;;;;;;;2.17;1.50;;;20.80;50.30;;;24.65;33.69;103007.22;5115812;28;20048;-9
2021/10/09 02:01:38;;;;;;;1.70;1.60;;;20.80;50.30;;;24.62;33.69;103002.00;5096746;28;20058;-9
2021/10/09 02:04:04;;;;;;;1.95;1.50;;;20.80;50.30;;;24.64;33.75;103010.88;5096842;28;20039;-9
2021/10/09 02:06:31;;;;;;;1.73;1.63;;;20.80;50.20;;;24.64;33.56;103002.84;5096587;28;20040;-9
2021/10/09 02:08:57;;;;;;;1.50;1.40;;;20.80;50.20;;;24.63;33.74;103003.75;5113638;28;20047;-9
2021/10/09 02:11:27;;;;;;;1.45;1.35;;;20.80;50.20;;;24.63;33.77;103002.91;5095781;28;20134;-9
2021/10/09 02:14:03;;;;;;;1.25;1.15;;;20.80;50.20;;;24.64;33.80;103009.97;5096553;28;20047;-9
2021/10/09 02:16:53;;;;;;;1.40;1.30;;;20.80;50.20;;;24.61;33.66;103008.31;5096780;28;20442;-9
2021/10/09 02:24:55;;;;;;;1.50;1.40;;;20.70;50.20;;;24.61;33.71;103002.97;5097078;28;20044;-9
2021/10/09 02:27:22;;;;;;;1.60;1.50;;;20.80;50.30;;;24.62;33.59;103004.69;5096685;28;20051;-9
2021/10/09 02:29:49;;;;;;;1.60;1.50;;;20.80;50.30;;;24.62;33.84;103006.50;5094201;28;20044;-10
2021/10/09 02:32:15;;;;;;;2.40;1.70;;;20.70;50.40;;;24.59;33.87;103005.72;5094020;28;20044;-9
2021/10/09 02:34:41;;;;;;;1.45;1.35;;;20.80;50.30;;;24.58;33.74;103001.28;5114593;28;20146;-9
2021/10/09 02:37:07;;;;;;;1.73;1.60;;;20.70;50.30;;;24.61;33.52;103005.66;5114634;28;20047;-9
2021/10/09 02:39:37;;;;;;;2.10;1.90;;;20.70;50.30;;;24.62;33.65;102993.13;5096086;28;20099;-10
2021/10/09 02:42:03;;;;;;;1.27;1.27;;;20.70;50.30;;;24.59;33.62;102994.13;5114582;28;20105;-9
2021/10/09 02:44:29;;;;;;;1.83;1.73;;;20.70;50.30;;;24.58;33.48;102995.94;5130188;28;20483;-9
2021/10/09 02:46:55;;;;;;;1.65;1.50;;;20.70;50.30;;;24.58;33.70;102995.94;5130758;28;20078;-9
2021/10/09 02:49:20;;;;;;;1.73;1.60;;;20.70;50.30;;;24.60;33.78;102999.41;5096545;28;20064;-9
2021/10/09 02:51:46;;;;;;;1.30;1.20;;;20.70;50.40;;;24.60;33.64;103003.91;5096015;28;20049;-9
2021/10/09 02:54:12;;;;;;;1.60;1.50;;;20.70;50.40;;;24.59;33.82;103002.13;5114652;28;20054;-9
2021/10/09 02:56:37;;;;;;;1.60;1.50;;;20.70;50.30;;;24.56;33.65;102994.28;5095980;28;20044;-9
2021/10/09 02:59:04;;;;;;;1.58;1.42;;;20.70;50.40;;;24.58;33.72;102995.06;5096175;28;20122;-9
2021/10/09 03:01:31;;;;;;;1.92;1.65;;;20.70;50.40;;;24.57;33.75;102996.88;5096209;28;20130;-9
2021/10/09 03:03:57;;;;;;;1.70;1.58;;;20.70;50.50;;;24.58;33.70;103003.97;5130044;28;20506;-9
2021/10/09 03:06:26;;;;;;;1.60;1.50;;;20.70;50.50;;;24.58;33.75;102997.75;5095879;28;20051;-9
2021/10/09 03:08:52;;;;;;;1.70;1.60;;;20.70;50.40;;;24.57;33.73;102996.00;5095506;28;20095;-9
2021/10/09 03:11:18;;;;;;;2.10;1.70;;;20.70;50.40;;;24.54;33.66;102996.97;5114143;28;20055;-9
2021/10/09 03:13:45;;;;;;;1.48;1.38;;;20.70;50.40;;;24.57;33.84;102999.56;5130329;28;20070;-9
2021/10/09 03:16:13;;;;;;;1.45;1.35;;;20.70;50.40;;;24.53;33.76;102992.56;5126319;28;20059;-9
2021/10/09 03:18:39;;;;;;;1.65;1.35;;;20.70;50.40;;;24.54;33.60;102996.97;5095568;28;20051;-9
2021/10/09 03:21:05;;;;;;;1.70;1.60;;;20.70;50.30;;;24.56;33.71;102999.63;5113949;28;20097;-9
2021/10/09 03:23:32;;;;;;;1.48;1.30;;;20.70;50.30;;;24.54;33.76;102999.66;5095583;28;20066;-9
2021/10/09 03:25:58;;;;;;;1.48;1.38;;;20.70;50.30;;;24.53;33.86;102999.72;5095474;28;20043;-9
2021/10/09 03:28:24;;;;;;;1.75;1.52;;;20.70;50.30;;;24.55;33.89;103003.22;5096034;28;20103;-9
2021/10/09 03:30:51;;;;;;;1.90;1.70;;;20.70;50.30;;;24.56;33.88;103007.66;5129467;28;20039;-9
2021/10/09 03:33:17;;;;;;;1.75;1.65;;;20.70;50.30;;;24.55;33.61;103006.75;5129456;28;20040;-9
2021/10/09 03:35:43;;;;;;;1.60;1.50;;;20.60;50.50;;;24.53;33.71;102997.03;5095897;28;20044;-9
2021/10/09 03:38:08;;;;;;;1.67;1.55;;;20.50;50.70;;;24.52;33.73;103000.66;5095221;28;20081;-9
2021/10/09 03:40:35;;;;;;;1.73;1.63;;;20.50;50.90;;;24.53;33.96;103005.94;5095263;28;20089;-9
2021/10/09 03:43:09;;;;;;;1.70;1.58;;;20.40;50.90;;;24.50;33.87;103000.72;5095217;28;20475;-9
2021/10/09 03:45:43;;;;;;;1.63;1.50;;;20.50;51.00;;;24.52;33.92;103008.66;5129627;28;20048;-9
2021/10/09 03:53:36;;;;;;;1.65;1.55;;;20.50;51.00;;;24.57;33.82;103012.94;5095511;28;20047;-9
2021/10/09 03:56:03;;;;;;;1.70;1.60;;;20.50;50.90;;;24.57;33.84;103009.38;5095544;28;20043;-9
2021/10/09 03:58:35;;;;;;;1.60;1.50;;;20.50;50.90;;;24.58;34.03;103005.78;5128810;28;20047;-9
2021/10/09 04:01:01;;;;;;;1.80;1.63;;;20.50;50.90;;;24.60;33.79;103006.56;5095002;28;20550;-9
2021/10/09 04:03:27;;;;;;;1.75;1.58;;;20.60;50.90;;;24.61;33.96;102997.63;5129033;28;20097;-9
2021/10/09 04:05:54;;;;;;;1.98;1.73;;;20.60;50.80;;;24.62;33.97;103002.00;5094946;28;20046;-9
2021/10/09 04:08:19;;;;;;;1.77;1.65;;;20.60;50.70;;;24.67;33.99;103001.81;5092367;28;20043;-9
2021/10/09 04:10:45;;;;;;;1.85;1.50;;;20.60;50.60;;;24.66;33.87;102997.38;5095189;28;20488;-9
2021/10/09 04:13:11;;;;;;;1.77;1.65;;;20.70;50.60;;;24.71;33.91;103004.28;5094770;28;20097;-9
2021/10/09 04:15:37;;;;;;;1.70;1.60;;;20.70;50.50;;;24.72;33.82;103002.47;5094783;28;20477;-9
2021/10/09 04:18:03;;;;;;;1.70;1.60;;;20.70;50.50;;;24.72;33.76;102998.00;5128834;28;20043;-9
2021/10/09 04:20:30;;;;;;;2.00;1.77;;;20.70;50.40;;;24.78;33.88;103007.56;5095313;28;20139;-9
2021/10/09 04:22:56;;;;;;;2.20;1.80;;;20.80;50.40;;;24.77;33.81;102990.66;5094672;28;20048;-9
2021/10/09 04:25:22;;;;;;;1.77;1.50;;;20.80;50.30;;;24.83;33.69;102999.34;5113280;28;20100;-9
2021/10/09 04:27:48;;;;;;;1.80;1.70;;;20.80;50.20;;;24.83;33.56;102994.84;5094496;28;20091;-9
2021/10/09 04:30:16;;;;;;;1.85;1.60;;;20.90;50.20;;;24.85;33.58;102984.09;5112902;28;20420;-9
2021/10/09 04:32:45;;;;;;;2.35;1.80;;;20.90;50.20;;;24.87;33.58;102988.41;5128463;28;20546;-9
2021/10/09 04:35:12;;;;;;;2.13;1.80;;;20.90;50.10;;;24.89;33.58;102983.00;5111153;28;20144;-9
2021/10/09 04:37:39;;;;;;;1.60;1.40;;;21.00;50.10;;;24.95;33.43;102998.78;5098799;28;20039;-9
2021/10/09 04:40:09;;;;;;;1.98;1.80;;;21.00;50.00;;;24.96;33.47;102997.84;5132155;28;20515;-9
2021/10/09 04:42:40;;;;;;;1.60;1.50;;;21.00;50.00;;;24.95;33.48;102985.41;5132832;28;20208;-9
2021/10/09 04:45:06;;;;;;;1.70;1.60;;;21.00;49.90;;;24.98;33.46;102987.09;5116721;28;20055;-9
2021/10/09 04:47:35;;;;;;;1.92;1.77;;;21.00;49.80;;;25.02;33.50;102996.69;5131982;28;20051;-9
2021/10/09 04:50:01;;;;;;;1.88;1.77;;;21.10;49.90;;;25.01;33.59;102992.25;5095664;28;20055;-9
2021/10/09 04:52:26;;;;;;;1.70;1.60;;;21.10;49.90;;;24.99;33.42;102989.66;5095523;28;20048;-9
2021/10/09 04:54:52;;;;;;;1.70;1.60;;;21.10;49.80;;;25.03;33.36;102995.75;5095561;28;20488;-9
2021/10/09 04:57:18;;;;;;;1.90;1.80;;;21.00;49.80;;;25.04;33.43;102997.47;5097754;28;20096;-9
2021/10/09 04:59:44;;;;;;;2.03;1.85;;;21.00;49.90;;;25.05;33.31;103001.91;5132087;28;20047;-9
2021/10/09 05:02:10;;;;;;;2.15;1.90;;;21.00;49.90;;;25.05;33.20;103001.91;5095422;28;20065;-9
2021/10/09 05:04:36;;;;;;;2.15;1.95;;;21.00;50.00;;;25.05;33.32;103009.94;5132094;28;20079;-9
2021/10/09 05:07:02;;;;;;;2.47;1.80;;;21.00;49.90;;;25.03;33.07;103003.78;5131785;28;20044;-9
2021/10/09 05:09:28;;;;;;;1.70;1.60;;;21.10;49.90;;;25.01;33.20;102997.63;5093051;28;20109;-9
2021/10/09 05:11:54;;;;;;;1.70;1.60;;;21.10;49.60;;;25.05;33.18;103026.00;5116608;28;20126;-9
2021/10/09 05:14:20;;;;;;;1.90;1.70;;;21.10;49.40;;;25.04;33.15;103019.78;5115959;28;20055;-9
2021/10/09 05:16:46;;;;;;;1.75;1.58;;;21.10;49.50;;;25.00;33.25;103015.50;5132212;28;20052;-9
2021/10/09 05:19:12;;;;;;;1.88;1.50;;;21.10;49.50;;;25.03;33.00;103015.38;5116197;28;20043;-9
2021/10/09 05:21:39;;;;;;;1.88;1.75;;;21.10;49.50;;;25.01;33.17;103019.03;5097990;28;20055;-8
2021/10/09 05:24:06;;;;;;;1.90;1.65;;;21.10;49.50;;;24.99;33.06;103019.09;5114789;28;20112;-9
2021/10/09 05:26:32;;;;;;;1.95;1.80;;;21.10;49.60;;;25.02;33.13;103031.50;5115732;28;20506;-9
2021/10/09 05:28:58;;;;;;;2.10;1.88;;;21.10;49.60;;;25.02;33.09;103029.66;5097469;28;20054;-9
2021/10/09 05:31:28;;;;;;;1.77;1.67;;;21.00;49.70;;;24.97;33.17;103018.31;5116070;28;20044;-9
2021/10/09 05:33:56;;;;;;;1.20;1.10;;;21.00;49.60;;;25.06;33.07;103025.94;5097165;28;20040;-9
2021/10/09 05:36:25;;;;;;;1.70;1.60;;;21.00;49.70;;;24.98;33.25;103025.41;5131680;28;20395;-9
2021/10/09 05:38:52;;;;;;;2.17;1.88;;;21.00;49.90;;;24.95;33.11;103020.19;5094721;28;20052;-9
2021/10/09 05:41:19;;;;;;;1.70;1.60;;;20.90;50.10;;;24.96;33.14;103029.97;5097100;28;20094;-9
2021/10/09 05:43:49;;;;;;;2.03;1.80;;;20.90;50.10;;;24.94;33.21;103029.16;5079739;28;20376;-9
2021/10/09 05:46:18;;;;;;;1.95;1.77;;;20.80;50.20;;;24.92;33.24;103026.53;5096970;28;20437;-9
2021/10/09 05:48:43;;;;;;;1.67;1.58;;;20.80;50.20;;;24.91;33.20;103024.81;5063677;28;20498;-9
2021/10/09 05:51:28;;;;;;;1.80;1.70;;;20.80;50.30;;;24.91;33.29;103031.97;5096989;28;20441;-9
2021/10/09 05:56:48;;;;;;;2.08;1.88;;;20.80;50.30;;;24.93;33.43;103033.63;5096727;28;20051;-9
2021/10/09 06:38:01;;;;;;;2.40;2.17;;;21.60;48.40;;;25.43;32.80;103043.00;5127588;28;20051;-9
2021/10/09 06:43:23;;;;;;;2.28;2.05;;;21.70;48.20;;;25.56;32.86;103054.03;5114495;28;20048;-9
2021/10/09 06:46:20;;;;;;;1.95;1.73;;;21.80;48.20;;;25.61;32.73;103051.09;5095066;28;20177;-8
2021/10/09 06:59:44;;;;;;;2.22;2.03;;;21.90;47.90;;;25.82;32.37;103073.34;5096048;28;20281;-9
2021/10/09 07:02:11;;;;;;;1.92;1.70;;;21.90;47.80;;;25.85;32.35;103068.69;5096494;28;20074;-9
2021/10/09 07:04:38;;;;;;;2.17;1.98;;;22.00;47.60;;;25.89;32.24;103072.09;5130210;28;20047;-9
2021/10/09 07:07:06;;;;;;;2.35;2.15;;;22.10;48.20;;;25.91;32.22;103066.66;5095869;28;20487;-9
2021/10/09 07:09:50;;;;;;;1.90;1.70;;;22.10;47.40;;;25.94;32.11;103072.72;5129024;28;20514;-9
2021/10/09 07:12:19;;;;;;;2.10;1.90;;;22.10;47.30;;;25.97;31.99;103078.00;5093368;28;20046;-8
2021/10/09 07:14:45;;;;;;;1.95;1.80;;;22.20;47.30;;;25.98;31.85;103082.41;5095732;28;20047;-9
2021/10/09 07:17:12;;;;;;;2.50;2.08;;;22.20;47.10;;;26.02;31.98;103083.13;5114073;28;20403;-9
2021/10/09 07:19:38;;;;;;;2.13;1.92;;;22.20;47.00;;;26.06;32.11;103084.69;5096131;28;20051;-9
2021/10/09 07:22:03;;;;;;;2.05;1.95;;;22.30;46.90;;;26.10;31.88;103089.00;5129782;28;20043;-9
2021/10/09 07:24:32;;;;;;;2.10;2.00;;;22.30;46.90;;;26.09;31.90;103092.59;5096102;28;20055;-9
2021/10/09 07:26:57;;;;;;;1.92;1.80;;;22.30;46.80;;;26.12;31.76;103086.25;5096063;28;20448;-9
2021/10/09 07:29:23;;;;;;;2.28;2.08;;;22.30;46.80;;;26.13;31.79;103085.28;5113842;28;20054;-8
2021/10/09 07:31:49;;;;;;;1.90;1.80;;;22.40;46.70;;;26.13;31.71;103087.94;5095524;28;20039;-9
2021/10/09 07:34:15;;;;;;;2.95;2.10;;;22.40;46.70;;;26.12;31.71;103081.72;5113546;28;20044;-9
2021/10/09 07:36:40;;;;;;;2.92;2.28;;;22.40;46.80;;;26.14;31.55;103084.34;5114272;28;20039;-9
2021/10/09 07:39:06;;;;;;;1.70;1.60;;;22.30;46.80;;;26.13;31.73;103088.84;5092896;28;20074;-9
2021/10/09 07:41:33;;;;;;;3.28;2.63;;;22.30;46.90;;;26.13;31.63;103096.00;5095366;28;20043;-9
2021/10/09 07:43:59;;;;;;;2.05;1.85;;;22.30;47.00;;;26.11;31.67;103098.78;5095659;28;20074;-9
2021/10/09 07:46:24;;;;;;;2.30;2.10;;;22.20;47.00;;;26.10;31.76;103102.41;5113970;28;20097;-9
2021/10/09 07:48:50;;;;;;;2.42;2.22;;;22.20;47.20;;;26.10;31.83;103110.44;5114091;28;20046;-9
2021/10/09 07:51:16;;;;;;;1.98;1.85;;;22.10;47.30;;;26.05;31.68;103107.97;5113480;28;20044;-9
2021/10/09 07:53:41;;;;;;;2.47;2.00;;;22.00;47.40;;;26.06;31.71;103112.41;5113462;28;20048;-9
2021/10/09 07:56:07;;;;;;;2.05;1.80;;;22.00;47.60;;;26.05;31.67;103104.44;5113332;28;20040;-10
2021/10/09 07:58:33;;;;;;;2.13;1.92;;;22.00;47.60;;;26.04;31.67;103108.03;5113203;28;20059;-9
2021/10/09 08:00:59;;;;;;;3.92;2.97;;;22.00;47.60;;;26.02;31.68;103107.25;5113410;28;20047;-9
2021/10/09 08:03:25;;;;;;;2.20;1.98;;;22.00;47.60;;;26.00;31.75;103103.78;5113443;28;20104;-9
2021/10/09 08:05:53;;;;;;;2.25;2.05;;;21.90;47.50;;;25.93;31.69;103092.47;5113631;28;20054;-9
2021/10/09 08:08:20;;;;;;;2.00;1.80;;;21.90;47.80;;;25.94;31.64;103101.38;5095699;28;20135;-9
2021/10/09 08:10:47;;;;;;;2.10;1.90;;;21.90;47.80;;;25.92;31.76;103103.25;5112333;28;20398;-9
2021/10/09 08:13:17;;;;;;;1.83;1.73;;;21.80;48.00;;;25.88;31.75;103105.22;5113512;28;20046;-8
2021/10/09 08:15:45;;;;;;;2.65;2.30;;;21.70;48.10;;;25.84;31.86;103095.56;5095200;28;20373;-9
2021/10/09 08:18:11;;;;;;;1.90;1.70;;;21.70;48.20;;;25.83;31.96;103102.75;5095354;28;20067;-9
2021/10/09 08:20:39;;;;;;;2.17;1.98;;;21.70;48.30;;;25.81;31.97;103099.28;5112949;28;20043;-9
2021/10/09 08:23:13;;;;;;;2.40;2.20;;;21.60;48.40;;;25.76;31.76;103095.94;5113376;28;20123;-9
2021/10/09 08:25:57;;;;;;;2.40;2.20;;;21.60;48.50;;;25.74;31.96;103095.13;5113392;28;20055;-9
2021/10/09 08:39:00;;;;;;;2.10;1.95;;;21.40;48.70;;;25.63;32.15;103094.78;5112853;28;20051;-9
2021/10/09 08:41:26;;;;;;;2.20;2.00;;;21.40;48.80;;;25.61;32.07;103091.28;5094659;28;20099;-9
2021/10/09 08:43:53;;;;;;;2.50;1.92;;;21.40;48.80;;;25.57;32.12;103085.22;5113034;28;20130;-9
2021/10/09 08:46:20;;;;;;;2.78;2.30;;;21.40;48.80;;;25.59;32.26;103093.19;5112988;28;20056;-9
2021/10/09 08:48:48;;;;;;;2.45;2.08;;;21.40;48.80;;;25.58;32.18;103083.44;5094343;28;20075;-9
2021/10/09 08:51:23;;;;;;;2.13;1.92;;;21.40;48.80;;;25.57;32.23;103095.06;5112677;28;20050;-9
2021/10/09 08:53:50;;;;;;;2.35;2.15;;;21.50;48.60;;;25.55;32.17;103089.78;5111189;28;20131;-9
2021/10/09 08:56:43;;;;;;;3.03;2.00;;;21.50;48.60;;;25.53;32.12;103086.31;5112956;28;20040;-9
2021/10/09 08:59:24;;;;;;;1.92;1.83;;;21.50;48.60;;;25.52;32.16;103088.09;5112554;28;20064;-9
2021/10/09 09:41:20;;;;;;;2.30;2.10;;;21.40;48.80;;;25.47;32.30;103068.69;5115689;28;20043;-9
2021/10/09 09:43:53;;;;;;;2.67;2.33;;;21.40;48.80;;;25.47;32.20;103065.16;5097756;28;20055;-9
2021/10/09 09:46:28;;;;;;;2.40;2.20;;;21.40;48.80;;;25.48;32.25;103056.19;5115264;28;20047;-9
2021/10/09 09:48:54;;;;;;;2.75;2.30;;;21.40;48.70;;;25.52;32.28;103057.78;5115530;28;20047;-9
2021/10/09 09:51:22;;;;;;;2.42;2.22;;;21.40;48.80;;;25.50;32.33;103051.63;5115900;28;20047;-9
2021/10/09 09:53:50;;;;;;;2.60;2.40;;;21.40;48.80;;;25.49;32.43;103049.88;5115340;28;20043;-9
2021/10/09 09:56:18;;;;;;;2.33;2.13;;;21.40;48.70;;;25.50;32.32;103047.13;5094704;28;20044;-9
2021/10/09 09:58:49;;;;;;;2.40;2.20;;;21.40;48.80;;;25.49;32.25;103047.19;5115582;28;20122;-9
2021/10/09 10:01:17;;;;;;;2.85;2.55;;;21.40;48.70;;;25.52;32.26;103047.06;5080047;28;20139;-9
2021/10/09 10:03:47;;;;;;;3.17;2.67;;;21.40;48.80;;;25.51;32.29;103053.38;5115241;28;20073;-8
2021/10/09 10:06:14;;;;;;;2.75;2.55;;;21.40;48.80;;;25.51;32.15;103054.22;5115195;28;20506;-9
2021/10/09 10:08:43;;;;;;;2.13;1.92;;;21.50;48.70;;;25.49;32.14;103049.88;5115380;28;20052;-9
2021/10/09 10:11:12;;;;;;;2.55;2.35;;;21.50;48.70;;;25.52;32.28;103049.72;5115145;28;20441;-9
2021/10/09 10:13:39;;;;;;;3.42;2.50;;;21.40;48.70;;;25.50;32.25;103048.94;5096790;28;20396;-9
2021/10/09 10:16:08;;;;;;;2.60;2.30;;;21.50;48.70;;;25.50;32.30;103047.13;5115078;28;20047;-9
2021/10/09 10:18:49;;;;;;;2.72;2.53;;;21.40;48.60;;;25.51;32.25;103056.06;5115012;28;20043;-9
2021/10/09 10:21:37;;;;;;;2.50;2.30;;;21.50;48.70;;;25.55;32.22;103052.28;5115017;28;20043;-9
2021/10/09 10:24:04;;;;;;;2.67;2.28;;;21.50;48.50;;;25.54;32.14;103036.28;5105256;28;20044;-9
2021/10/09 10:26:31;;;;;;;3.97;2.45;;;21.50;48.50;;;25.53;32.21;103048.81;5114977;28;20040;-9
2021/10/09 10:28:57;;;;;;;2.22;2.03;;;21.50;48.50;;;25.57;32.39;103042.34;5114845;28;20085;-9
2021/10/09 10:31:25;;;;;;;2.28;2.08;;;21.60;48.40;;;25.54;32.19;103047.00;5114803;28;20124;-9
2021/10/09 10:33:59;;;;;;;3.10;2.40;;;21.60;48.30;;;25.54;32.22;103053.22;5113905;28;20043;-9
2021/10/09 10:36:40;;;;;;;2.28;2.08;;;21.60;48.30;;;25.54;32.14;103047.00;5096489;28;20047;-9
2021/10/09 10:39:08;;;;;;;2.53;2.33;;;21.70;48.20;;;25.57;32.11;103049.53;5114916;28;20048;-9
2021/10/09 10:41:55;;;;;;;2.33;2.13;;;21.70;48.10;;;25.53;32.26;103035.41;5130324;28;20044;-9
2021/10/09 10:47:53;;;;;;;2.13;1.92;;;21.70;48.00;;;25.52;32.21;103037.19;5114270;28;20051;-9
2021/10/09 10:51:04;;;;;;;3.60;2.30;;;21.80;47.90;;;25.57;32.20;103041.50;5114606;28;20040;-9
2021/10/09 10:57:02;;;;;;;2.45;2.25;;;21.80;47.70;;;25.56;32.13;103042.41;5096287;28;20071;-9
2021/10/09 11:02:12;;;;;;;3.15;2.67;;;21.80;47.70;;;25.52;32.16;103036.34;5096271;28;20044;-8
2021/10/09 11:04:49;;;;;;;2.50;2.22;;;21.80;47.70;;;25.54;32.13;103047.00;5095909;28;20059;-8
2021/10/09 11:07:15;;;;;;;2.72;2.33;;;21.80;47.70;;;25.53;32.14;103040.78;5114127;28;20035;-9
2021/10/09 11:09:42;;;;;;;2.30;2.10;;;21.80;47.70;;;25.51;32.20;103046.19;5114156;28;20047;-8
2021/10/09 11:12:29;;;;;;;2.22;2.03;;;21.80;47.70;;;25.54;32.10;103044.31;5114185;28;20048;-9
2021/10/09 11:15:23;;;;;;;2.50;2.30;;;21.80;47.70;;;25.52;32.18;103028.31;5114074;28;20116;-9
2021/10/09 11:18:02;;;;;;;2.55;1.92;;;21.80;47.70;;;25.48;32.23;103035.63;5095703;28;20043;-8
2021/10/09 11:20:38;;;;;;;2.83;2.50;;;21.80;47.70;;;25.50;32.18;103033.72;5114196;28;20048;-9
2021/10/09 11:23:10;;;;;;;2.92;2.53;;;21.80;47.70;;;25.51;32.27;103030.13;5114102;28;20052;-8
2021/10/09 11:25:42;;;;;;;2.38;2.17;;;21.80;47.70;;;25.52;32.20;103039.03;5114011;28;20107;-9
2021/10/09 11:28:30;;;;;;;2.55;2.35;;;21.80;47.70;;;25.51;32.26;103031.94;5113933;28;20127;-9
2021/10/09 11:30:56;;;;;;;4.38;2.38;;;21.80;47.70;;;25.48;32.18;103037.44;5112464;28;20048;-9
2021/10/09 11:33:23;;;;;;;3.00;2.28;;;21.80;47.70;;;25.53;32.23;103038.09;5113809;28;20471;-9
2021/10/09 11:35:49;;;;;;;2.35;2.15;;;21.80;47.80;;;25.51;32.18;103034.63;5113657;28;20177;-9
2021/10/09 11:38:32;;;;;;;2.33;2.13;;;21.80;47.80;;;25.51;32.15;103031.94;5095347;28;20048;-8
2021/10/09 11:41:10;;;;;;;2.20;2.00;;;21.70;47.80;;;25.50;32.32;103030.19;5113739;28;20131;-9
2021/10/09 11:44:00;;;;;;;2.70;2.50;;;21.70;47.80;;;25.47;32.10;103023.16;5113461;28;20035;-9
2021/10/09 11:47:21;;;;;;;2.50;2.30;;;21.70;47.90;;;25.49;32.18;103029.34;5114166;28;20059;-9
2021/10/09 11:55:18;;;;;;;2.60;2.28;;;21.50;48.30;;;25.48;32.18;103027.59;5113418;28;20063;-9
2021/10/09 11:57:46;;;;;;;2.38;2.17;;;21.50;48.40;;;25.47;32.24;103023.16;5113772;28;20395;-9
2021/10/09 12:00:28;;;;;;;4.43;2.78;;;21.50;48.40;;;25.47;32.27;103025.84;5113457;28;20084;-9
2021/10/09 12:02:59;;;;;;;2.40;2.20;;;21.40;48.50;;;25.43;32.22;103013.56;5113460;28;20165;-9
2021/10/09 12:05:33;;;;;;;3.10;2.30;;;21.50;48.40;;;25.46;32.33;103016.09;5113502;28;20391;-9
2021/10/09 12:11:24;;;;;;;2.53;2.33;;;21.50;48.40;;;25.47;32.14;103016.94;5113589;28;20048;-9
2021/10/09 12:13:57;;;;;;;2.75;2.53;;;21.50;48.40;;;25.45;32.13;103016.16;5113141;28;20139;-9
2021/10/09 12:16:36;;;;;;;2.28;2.08;;;21.40;48.40;;;25.41;32.26;103006.50;5113427;28;20039;-9
2021/10/09 12:19:16;;;;;;;2.70;2.50;;;21.50;48.40;;;25.44;32.31;103011.72;5092472;28;20048;-9
2021/10/09 12:22:14;;;;;;;2.65;2.13;;;21.50;48.30;;;25.43;32.23;103008.19;5113200;28;20480;-9
2021/10/09 12:24:54;;;;;;;2.42;2.22;;;21.50;48.30;;;25.41;32.36;103009.19;5112646;28;20420;-8
2021/10/09 12:27:26;;;;;;;1.83;1.73;;;21.50;48.40;;;25.42;32.25;103009.13;5095170;28;20549;-9
2021/10/09 12:30:16;;;;;;;2.53;2.28;;;21.50;48.30;;;25.38;32.26;103012.03;5112958;28;20130;-9
2021/10/09 12:32:50;;;;;;;2.55;2.35;;;21.40;48.50;;;25.37;32.45;103003.13;5113184;28;20062;-8
2021/10/09 12:35:29;;;;;;;2.53;2.25;;;21.40;48.40;;;25.35;32.18;102996.97;5112814;28;20483;-8
2021/10/09 12:38:05;;;;;;;3.53;2.60;;;21.40;48.60;;;25.35;32.35;103001.47;5112568;28;20155;-9
2021/10/09 12:40:47;;;;;;;3.03;2.50;;;21.40;48.50;;;25.33;32.43;102999.72;5129091;28;20043;-9
2021/10/09 12:43:18;;;;;;;3.63;2.70;;;21.40;48.40;;;25.32;32.25;102997.09;5113200;28;20135;-9